createdAt,value
2022-08-04T00:00:19.945Z,94992
2022-08-04T00:03:45.267Z,94987
2022-08-04T00:07:10.581Z,94987
2022-08-04T00:10:35.887Z,94993
2022-08-04T00:14:02.807Z,94988
2022-08-04T00:17:26.510Z,94987
2022-08-04T00:20:51.848Z,94988
2022-08-04T00:24:17.165Z,94995
2022-08-04T00:27:42.470Z,94995
2022-08-04T00:31:07.765Z,94991
2022-08-04T00:34:33.068Z,94994
2022-08-04T00:37:58.409Z,94994
2022-08-04T00:41:23.745Z,94986
2022-08-04T00:44:49.049Z,94990
2022-08-04T00:48:14.350Z,94994
2022-08-04T00:51:39.655Z,94991
2022-08-04T00:55:08.469Z,94994
2022-08-04T00:58:30.307Z,94993
2022-08-04T01:01:55.663Z,94991
2022-08-04T01:05:20.934Z,94991
2022-08-04T01:08:46.242Z,94994
2022-08-04T01:12:11.569Z,94992
2022-08-04T01:15:53.755Z,94990
2022-08-04T01:19:02.197Z,94985
2022-08-04T01:22:27.527Z,94985
2022-08-04T01:25:52.848Z,94985
2022-08-04T01:29:18.147Z,94979
2022-08-04T01:32:43.466Z,94981
2022-08-04T01:36:08.808Z,94983
2022-08-04T01:39:34.136Z,94983
2022-08-04T01:42:59.442Z,94983
2022-08-04T01:46:24.763Z,94987
2022-08-04T01:49:50.063Z,94982
2022-08-04T01:53:15.376Z,94986
2022-08-04T01:56:40.709Z,94982
2022-08-04T02:00:06.006Z,94986
2022-08-04T02:04:17.916Z,94988
2022-08-04T02:06:56.706Z,94993
2022-08-04T02:10:22.000Z,94989
2022-08-04T02:13:47.357Z,94986
2022-08-04T02:17:12.753Z,94986
2022-08-04T02:20:38.061Z,94980
2022-08-04T02:24:03.401Z,94979
2022-08-04T02:27:28.724Z,94982
2022-08-04T02:30:54.040Z,94979
2022-08-04T02:34:19.353Z,94975
2022-08-04T02:37:44.681Z,94977
2022-08-04T02:41:10.049Z,94976
2022-08-04T02:44:35.349Z,94970
2022-08-04T02:48:08.373Z,94971
2022-08-04T02:51:25.992Z,94971
2022-08-04T02:54:51.286Z,94972
2022-08-04T02:58:16.623Z,94972
2022-08-04T03:01:42.618Z,94964
2022-08-04T03:05:07.292Z,94965
2022-08-04T03:08:32.618Z,94969
2022-08-04T03:11:57.934Z,94963
2022-08-04T03:15:23.253Z,94970
2022-08-04T03:18:48.548Z,94966
2022-08-04T03:22:13.884Z,94966
2022-08-04T03:25:55.836Z,94971
2022-08-04T03:29:04.548Z,94971
2022-08-04T03:32:29.880Z,94977
2022-08-04T03:35:55.217Z,94977
2022-08-04T03:39:20.616Z,94973
2022-08-04T03:42:45.890Z,94985
2022-08-04T03:46:11.208Z,94986
2022-08-04T03:49:36.544Z,94988
2022-08-04T03:53:01.897Z,94987
2022-08-04T03:56:27.257Z,94986
2022-08-04T03:59:52.568Z,94984
2022-08-04T04:03:26.777Z,94981
2022-08-04T04:06:44.011Z,94975
2022-08-04T04:10:08.587Z,94975
2022-08-04T04:13:33.943Z,94973
2022-08-04T04:16:59.963Z,94971
2022-08-04T04:20:25.297Z,94972
2022-08-04T04:23:50.623Z,94970
2022-08-04T04:27:15.973Z,94973
2022-08-04T04:30:41.329Z,94969
2022-08-04T04:34:06.638Z,94972
2022-08-04T04:37:31.978Z,94976
2022-08-04T04:40:57.333Z,94979
2022-08-04T04:44:25.204Z,94980
2022-08-04T04:48:07.958Z,94980
2022-08-04T04:51:13.296Z,94980
2022-08-04T04:54:38.655Z,94982
2022-08-04T04:58:03.962Z,94983
2022-08-04T05:01:29.309Z,94975
2022-08-04T05:04:54.674Z,94979
2022-08-04T05:08:40.990Z,94977
2022-08-04T05:11:45.530Z,94978
2022-08-04T05:15:10.934Z,94977
2022-08-04T05:18:36.282Z,94976
2022-08-04T05:22:01.613Z,94987
2022-08-04T05:25:26.959Z,94985
2022-08-04T05:28:52.293Z,94990
2022-08-04T05:32:17.657Z,94989
2022-08-04T05:36:15.967Z,94991
2022-08-04T05:39:08.357Z,94985
2022-08-04T05:42:33.645Z,94988
2022-08-04T05:45:58.983Z,94984
2022-08-04T05:49:24.313Z,94987
2022-08-04T05:52:49.656Z,94988
2022-08-04T05:56:15.051Z,94990
2022-08-04T05:59:40.419Z,94978
2022-08-04T06:03:05.731Z,94985
2022-08-04T06:06:31.067Z,94985
2022-08-04T06:09:56.411Z,94989
2022-08-04T06:13:45.189Z,94993
2022-08-04T06:16:51.244Z,94995
2022-08-04T06:20:18.797Z,94990
2022-08-04T06:23:37.744Z,94988
2022-08-04T06:27:03.041Z,94994
2022-08-04T06:30:28.445Z,94996
2022-08-04T06:33:54.687Z,95001
2022-08-04T06:37:24.246Z,94994
2022-08-04T06:40:44.347Z,94999
2022-08-04T06:44:09.723Z,94995
2022-08-04T06:47:35.051Z,94995
2022-08-04T06:51:28.992Z,94995
2022-08-04T06:54:25.724Z,94991
2022-08-04T06:57:51.061Z,94992
2022-08-04T07:01:16.474Z,94996
2022-08-04T07:04:41.775Z,94994
2022-08-04T07:08:07.102Z,94992
2022-08-04T07:11:39.114Z,94994
2022-08-04T07:14:57.789Z,94991
2022-08-04T07:18:23.097Z,94996
2022-08-04T07:22:05.256Z,94989
2022-08-04T07:25:13.714Z,94987
2022-08-04T07:28:39.027Z,94990
2022-08-04T07:32:04.336Z,94988
2022-08-04T07:36:04.279Z,94990
2022-08-04T07:38:55.018Z,94988
2022-08-04T07:42:20.298Z,94987
2022-08-04T07:45:45.625Z,94979
2022-08-04T07:49:10.948Z,94982
2022-08-04T07:52:39.838Z,94987
2022-08-04T07:56:01.587Z,94981
2022-08-04T07:59:26.927Z,94980
2022-08-04T08:02:52.268Z,94980
2022-08-04T08:06:31.883Z,94984
2022-08-04T08:09:42.942Z,94980
2022-08-04T08:13:08.262Z,94983
2022-08-04T08:16:33.602Z,94989
2022-08-04T08:19:58.936Z,94990
2022-08-04T08:23:24.276Z,94984
2022-08-04T08:26:49.600Z,94980
2022-08-04T08:30:14.935Z,94981
2022-08-04T08:33:40.269Z,94972
2022-08-04T08:37:05.591Z,94974
2022-08-04T08:40:32.416Z,94972
2022-08-04T08:44:00.747Z,94973
2022-08-04T08:47:21.848Z,94974
2022-08-04T08:50:46.952Z,94976
2022-08-04T08:54:12.319Z,94979
2022-08-04T08:57:40.317Z,94982
2022-08-04T09:01:03.084Z,94979
2022-08-04T09:04:31.776Z,94971
2022-08-04T09:07:53.678Z,94974
2022-08-04T09:11:18.995Z,94979
2022-08-04T09:14:44.314Z,94975
2022-08-04T09:18:09.670Z,94977
2022-08-04T09:21:34.985Z,94971
2022-08-04T09:25:00.323Z,94973
2022-08-04T09:28:52.024Z,94967
2022-08-04T09:31:52.893Z,94963
2022-08-04T09:35:16.413Z,94960
2022-08-04T09:38:42.364Z,94959
2022-08-04T09:42:07.693Z,94960
2022-08-04T09:45:42.793Z,94963
2022-08-04T09:48:58.358Z,94957
2022-08-04T09:52:23.940Z,94958
2022-08-04T09:55:53.295Z,94952
2022-08-04T09:59:14.398Z,94954
2022-08-04T10:02:40.714Z,94954
2022-08-04T10:06:06.007Z,94949
2022-08-04T10:09:31.328Z,94946
2022-08-04T10:12:56.671Z,94948
2022-08-04T10:16:22.059Z,94947
2022-08-04T10:19:47.366Z,94952
2022-08-04T10:23:12.705Z,94951
2022-08-04T10:26:39.030Z,94943
2022-08-04T10:30:04.364Z,94937
2022-08-04T10:33:29.770Z,94935
2022-08-04T10:36:55.096Z,94934
2022-08-04T10:40:20.403Z,94933
2022-08-04T10:43:45.768Z,94930
2022-08-04T10:47:11.094Z,94931
2022-08-04T10:50:36.423Z,94932
2022-08-04T10:54:01.760Z,94926
2022-08-04T10:57:27.114Z,94914
2022-08-04T11:00:52.913Z,94915
2022-08-04T11:04:26.669Z,94916
2022-08-04T11:07:43.575Z,94907
2022-08-04T11:11:08.903Z,94910
2022-08-04T11:14:36.207Z,94909
2022-08-04T11:18:02.468Z,94919
2022-08-04T11:21:27.797Z,94911
2022-08-04T11:24:53.175Z,94905
2022-08-04T11:28:18.563Z,94912
2022-08-04T11:31:46.285Z,94907
2022-08-04T11:35:09.189Z,94908
2022-08-04T11:38:34.548Z,94907
2022-08-04T11:41:59.899Z,94905
2022-08-04T11:45:25.255Z,94909
2022-08-04T11:48:50.664Z,94904
2022-08-04T11:52:17.807Z,94899
2022-08-04T11:56:07.237Z,94900
2022-08-04T11:59:06.725Z,94900
2022-08-04T12:02:32.115Z,94900
2022-08-04T12:05:57.389Z,94898
2022-08-04T12:09:22.730Z,94887
2022-08-04T12:12:48.107Z,94890
2022-08-04T12:16:13.462Z,94892
2022-08-04T12:20:02.424Z,94884
2022-08-04T12:23:04.169Z,94873
2022-08-04T12:26:29.518Z,94879
2022-08-04T12:30:54.442Z,94879
2022-08-04T12:33:20.351Z,94875
2022-08-04T12:36:46.359Z,94874
2022-08-04T12:40:17.098Z,94871
2022-08-04T12:43:39.629Z,94865
2022-08-04T12:47:26.157Z,94864
2022-08-04T12:50:31.692Z,94864
2022-08-04T12:53:57.119Z,94861
2022-08-04T12:57:22.832Z,94859
2022-08-04T13:00:48.089Z,94856
2022-08-04T13:04:28.973Z,94850
2022-08-04T13:07:52.078Z,94855
2022-08-04T13:11:17.453Z,94854
2022-08-04T13:14:42.965Z,94849
2022-08-04T13:18:11.883Z,94839
2022-08-04T13:21:49.568Z,94842
2022-08-04T13:25:18.730Z,94831
2022-08-04T13:28:24.791Z,94836
2022-08-04T13:31:52.492Z,94830
2022-08-04T13:35:15.639Z,94833
2022-08-04T13:38:41.069Z,94827
2022-08-04T13:42:06.435Z,94824
2022-08-04T13:45:34.769Z,94826
2022-08-04T13:52:22.699Z,94815
2022-08-04T13:55:48.189Z,94819
2022-08-04T13:59:13.649Z,94821
2022-08-04T14:02:39.005Z,94818
2022-08-04T14:06:04.500Z,94812
2022-08-04T14:09:35.010Z,94813
2022-08-04T14:12:55.261Z,94804
2022-08-04T14:16:20.662Z,94804
2022-08-04T14:19:46.075Z,94799
2022-08-04T14:23:11.459Z,94798
2022-08-04T14:26:36.856Z,94799
2022-08-04T15:06:09.567Z,94782
2022-08-04T15:09:30.939Z,94779
2022-08-04T15:12:56.254Z,94771
2022-08-04T15:16:21.596Z,94770
2022-08-04T15:19:55.386Z,94774
2022-08-04T15:23:12.281Z,94767
2022-08-04T15:26:37.611Z,94774
2022-08-04T15:30:03.050Z,94770
2022-08-04T15:33:28.916Z,94767
2022-08-04T15:36:56.136Z,94762
2022-08-04T15:40:27.009Z,94763
2022-08-04T15:43:55.164Z,94759
2022-08-04T15:47:13.951Z,94758
2022-08-04T15:50:39.322Z,94752
2022-08-04T15:54:08.461Z,94754
2022-08-04T15:57:30.004Z,94744
2022-08-04T16:00:55.413Z,94749
2022-08-04T16:04:20.833Z,94751
2022-08-04T16:07:46.215Z,94747
2022-08-04T16:11:11.567Z,94750
2022-08-04T16:14:36.903Z,94747
2022-08-04T16:18:02.885Z,94746
2022-08-04T16:21:28.244Z,94754
2022-08-04T16:24:53.591Z,94748
2022-08-04T16:28:18.942Z,94749
2022-08-04T16:31:44.265Z,94751
2022-08-04T16:35:09.657Z,94752
2022-08-04T16:38:35.022Z,94746
2022-08-04T16:42:00.388Z,94743
2022-08-04T16:45:25.744Z,94739
2022-08-04T16:48:51.109Z,94747
2022-08-04T16:52:16.455Z,94746
2022-08-04T16:55:41.808Z,94741
2022-08-04T16:59:07.160Z,94747
2022-08-04T17:02:32.599Z,94745
2022-08-04T17:05:57.847Z,94740
2022-08-04T17:09:26.880Z,94742
2022-08-04T17:12:48.537Z,94742
2022-08-04T17:16:13.987Z,94734
2022-08-04T17:19:39.292Z,94731
2022-08-04T17:23:04.698Z,94732
2022-08-04T17:29:55.526Z,94726
2022-08-04T17:33:20.968Z,94726
2022-08-04T17:36:47.429Z,94716
2022-08-04T17:40:11.835Z,94718
2022-08-04T17:44:01.674Z,94724
2022-08-04T17:47:02.589Z,94723
2022-08-04T17:50:27.973Z,94719
2022-08-04T17:54:02.106Z,94723
2022-08-04T17:57:19.823Z,94720
2022-08-04T18:00:44.066Z,94721
2022-08-04T18:04:09.488Z,94722
2022-08-04T18:08:35.735Z,94723
2022-08-04T18:11:00.360Z,94724
2022-08-04T18:14:25.846Z,94716
2022-08-04T18:18:20.206Z,94721
2022-08-04T18:21:16.677Z,94722
2022-08-04T18:24:55.138Z,94723
2022-08-04T18:28:10.809Z,94722
2022-08-04T18:31:33.579Z,94722
2022-08-04T18:34:58.123Z,94723
2022-08-04T18:38:24.240Z,94725
2022-08-04T18:41:51.504Z,94737
2022-08-04T18:45:16.798Z,94735
2022-08-04T18:48:52.320Z,94734
2022-08-04T18:52:16.129Z,94737
2022-08-04T18:55:56.284Z,94737
2022-08-04T18:59:10.476Z,94731
2022-08-04T19:02:31.775Z,94738
2022-08-04T19:05:58.364Z,94734
2022-08-04T19:09:22.651Z,94738
2022-08-04T19:12:47.981Z,94740
2022-08-04T19:16:20.881Z,94743
2022-08-04T19:19:48.005Z,94744
2022-08-04T19:24:11.716Z,94745
2022-08-04T19:26:32.925Z,94745
2022-08-04T19:29:58.228Z,94748
2022-08-04T19:33:24.338Z,94754
2022-08-04T19:36:48.884Z,94758
2022-08-04T19:40:15.117Z,94760
2022-08-04T19:43:39.629Z,94757
2022-08-04T19:48:11.741Z,94761
2022-08-04T19:50:30.423Z,94761
2022-08-04T19:54:02.603Z,94753
2022-08-04T19:57:21.226Z,94753
2022-08-04T20:00:51.175Z,94756
2022-08-04T20:04:12.618Z,94763
2022-08-04T20:07:37.382Z,94761
2022-08-04T20:11:02.781Z,94763
2022-08-04T20:14:31.858Z,94763
2022-08-04T20:18:07.217Z,94767
2022-08-04T20:21:24.091Z,94759
2022-08-04T20:24:52.024Z,94760
2022-08-04T20:28:09.931Z,94754
2022-08-04T20:31:35.327Z,94760
2022-08-04T20:35:00.764Z,94759
2022-08-04T20:38:32.895Z,94765
2022-08-04T20:41:51.559Z,94760
2022-08-04T20:45:16.967Z,94754
2022-08-04T20:48:42.243Z,94755
2022-08-04T20:52:13.582Z,94753
2022-08-04T20:55:32.931Z,94758
2022-08-04T20:58:58.239Z,94753
2022-08-04T21:02:23.579Z,94754
2022-08-04T21:05:48.885Z,94748
2022-08-04T21:09:15.677Z,94750
2022-08-04T21:12:39.549Z,94752
2022-08-04T21:16:04.851Z,94756
2022-08-04T21:19:30.157Z,94757
2022-08-04T21:22:55.504Z,94757
2022-08-04T21:26:20.819Z,94759
2022-08-04T21:29:46.200Z,94763
2022-08-04T21:33:11.479Z,94762
2022-08-04T21:36:36.830Z,94764
2022-08-04T21:40:14.896Z,94764
2022-08-04T21:43:28.471Z,94771
2022-08-04T21:46:52.801Z,94770
2022-08-04T21:50:19.733Z,94766
2022-08-04T21:53:43.454Z,94767
2022-08-04T21:57:08.789Z,94771
2022-08-04T22:00:34.132Z,94768
2022-08-04T22:03:59.457Z,94768
2022-08-04T22:07:25.231Z,94771
2022-08-04T22:10:50.385Z,94767
2022-08-04T22:14:15.714Z,94763
2022-08-04T22:17:41.036Z,94769
2022-08-04T22:21:09.549Z,94765
2022-08-04T22:24:31.676Z,94764
2022-08-04T22:27:56.992Z,94767
2022-08-04T22:31:23.640Z,94765
2022-08-04T22:34:53.352Z,94763
2022-08-04T22:38:22.420Z,94760
2022-08-04T22:41:48.352Z,94759
2022-08-04T22:45:03.615Z,94758
2022-08-04T22:48:28.956Z,94756
2022-08-04T22:51:54.264Z,94757
2022-08-04T22:55:19.601Z,94757
2022-08-04T22:58:51.120Z,94756
2022-08-04T23:02:10.227Z,94758
2022-08-04T23:05:36.061Z,94754
2022-08-04T23:09:00.856Z,94748
2022-08-04T23:12:27.156Z,94751
2022-08-04T23:15:51.470Z,94742
2022-08-04T23:19:16.775Z,94742
2022-08-04T23:22:43.014Z,94743
2022-08-04T23:26:10.964Z,94741
2022-08-04T23:29:52.449Z,94739
2022-08-04T23:32:58.092Z,94739
2022-08-04T23:36:26.253Z,94739
2022-08-04T23:40:04.119Z,94734
2022-08-04T23:43:16.981Z,94737
2022-08-04T23:46:39.393Z,94740
2022-08-04T23:50:04.717Z,94742
2022-08-04T23:53:30.059Z,94733
2022-08-04T23:56:55.364Z,94731
